sensor_id;sensor_type;location;lat;lon;timestamp;P1;durP1;ratioP1;P2;durP2;ratioP2
47481;SDS011;33219;47.410;9.730;2022-07-23T00:00:48;12.07;;;9.73;;
47481;SDS011;33219;47.410;9.730;2022-07-23T00:03:16;13.00;;;10.10;;
47481;SDS011;33219;47.410;9.730;2022-07-23T00:05:43;12.75;;;10.60;;
47481;SDS011;33219;47.410;9.730;2022-07-23T00:08:11;11.38;;;10.18;;
47481;SDS011;33219;47.410;9.730;2022-07-23T00:10:39;12.20;;;10.35;;
47481;SDS011;33219;47.410;9.730;2022-07-23T00:13:06;14.23;;;10.68;;
47481;SDS011;33219;47.410;9.730;2022-07-23T00:15:34;11.90;;;9.60;;
47481;SDS011;33219;47.410;9.730;2022-07-23T00:18:02;12.10;;;9.88;;
47481;SDS011;33219;47.410;9.730;2022-07-23T00:20:29;13.08;;;10.70;;
47481;SDS011;33219;47.410;9.730;2022-07-23T00:22:57;13.70;;;10.85;;
47481;SDS011;33219;47.410;9.730;2022-07-23T00:25:26;14.43;;;10.48;;
47481;SDS011;33219;47.410;9.730;2022-07-23T00:27:54;14.00;;;10.30;;
47481;SDS011;33219;47.410;9.730;2022-07-23T00:30:21;13.15;;;10.63;;
47481;SDS011;33219;47.410;9.730;2022-07-23T00:32:50;14.35;;;10.88;;
47481;SDS011;33219;47.410;9.730;2022-07-23T00:35:20;12.00;;;10.23;;
47481;SDS011;33219;47.410;9.730;2022-07-23T00:37:48;11.78;;;9.80;;
47481;SDS011;33219;47.410;9.730;2022-07-23T00:40:16;14.20;;;10.53;;
47481;SDS011;33219;47.410;9.730;2022-07-23T00:42:43;14.85;;;11.63;;
47481;SDS011;33219;47.410;9.730;2022-07-23T00:45:11;14.78;;;11.33;;
47481;SDS011;33219;47.410;9.730;2022-07-23T00:47:39;14.05;;;11.60;;
47481;SDS011;33219;47.410;9.730;2022-07-23T00:50:07;13.53;;;11.05;;
47481;SDS011;33219;47.410;9.730;2022-07-23T00:52:36;18.37;;;14.78;;
47481;SDS011;33219;47.410;9.730;2022-07-23T00:55:05;15.75;;;12.13;;
47481;SDS011;33219;47.410;9.730;2022-07-23T00:57:34;16.45;;;11.65;;
47481;SDS011;33219;47.410;9.730;2022-07-23T01:00:09;17.32;;;12.95;;
47481;SDS011;33219;47.410;9.730;2022-07-23T01:02:33;13.40;;;11.65;;
47481;SDS011;33219;47.410;9.730;2022-07-23T01:05:00;14.63;;;12.13;;
47481;SDS011;33219;47.410;9.730;2022-07-23T01:07:28;15.03;;;12.45;;
47481;SDS011;33219;47.410;9.730;2022-07-23T01:09:56;15.10;;;11.15;;
47481;SDS011;33219;47.410;9.730;2022-07-23T01:12:24;15.13;;;11.50;;
47481;SDS011;33219;47.410;9.730;2022-07-23T01:14:55;15.28;;;11.83;;
47481;SDS011;33219;47.410;9.730;2022-07-23T01:17:24;14.58;;;11.03;;
47481;SDS011;33219;47.410;9.730;2022-07-23T01:19:53;13.70;;;11.97;;
47481;SDS011;33219;47.410;9.730;2022-07-23T01:22:20;13.48;;;11.63;;
47481;SDS011;33219;47.410;9.730;2022-07-23T01:24:49;13.72;;;11.50;;
47481;SDS011;33219;47.410;9.730;2022-07-23T01:27:16;13.93;;;11.22;;
47481;SDS011;33219;47.410;9.730;2022-07-23T01:29:45;13.95;;;12.33;;
47481;SDS011;33219;47.410;9.730;2022-07-23T01:32:12;15.40;;;11.83;;
47481;SDS011;33219;47.410;9.730;2022-07-23T01:34:40;15.53;;;12.58;;
47481;SDS011;33219;47.410;9.730;2022-07-23T01:37:08;21.12;;;16.23;;
47481;SDS011;33219;47.410;9.730;2022-07-23T01:39:35;20.12;;;16.12;;
47481;SDS011;33219;47.410;9.730;2022-07-23T01:42:03;22.02;;;17.67;;
47481;SDS011;33219;47.410;9.730;2022-07-23T01:44:31;18.82;;;16.10;;
47481;SDS011;33219;47.410;9.730;2022-07-23T01:46:58;19.65;;;15.32;;
47481;SDS011;33219;47.410;9.730;2022-07-23T01:49:26;18.52;;;15.28;;
47481;SDS011;33219;47.410;9.730;2022-07-23T01:51:53;18.70;;;15.70;;
47481;SDS011;33219;47.410;9.730;2022-07-23T01:54:27;23.98;;;17.15;;
47481;SDS011;33219;47.410;9.730;2022-07-23T01:56:56;19.50;;;16.42;;
47481;SDS011;33219;47.410;9.730;2022-07-23T01:59:24;19.35;;;15.93;;
47481;SDS011;33219;47.410;9.730;2022-07-23T02:01:53;23.98;;;16.57;;
47481;SDS011;33219;47.410;9.730;2022-07-23T02:04:21;21.02;;;16.90;;
47481;SDS011;33219;47.410;9.730;2022-07-23T02:06:51;19.00;;;16.57;;
47481;SDS011;33219;47.410;9.730;2022-07-23T02:09:19;17.85;;;15.93;;
47481;SDS011;33219;47.410;9.730;2022-07-23T02:11:48;22.37;;;18.42;;
47481;SDS011;33219;47.410;9.730;2022-07-23T02:14:15;22.05;;;16.30;;
47481;SDS011;33219;47.410;9.730;2022-07-23T02:16:43;19.70;;;16.40;;
47481;SDS011;33219;47.410;9.730;2022-07-23T02:19:10;22.50;;;17.60;;
47481;SDS011;33219;47.410;9.730;2022-07-23T02:21:38;20.60;;;16.12;;
47481;SDS011;33219;47.410;9.730;2022-07-23T02:24:06;19.25;;;15.72;;
47481;SDS011;33219;47.410;9.730;2022-07-23T02:26:33;20.57;;;16.25;;
47481;SDS011;33219;47.410;9.730;2022-07-23T02:29:01;17.92;;;14.90;;
47481;SDS011;33219;47.410;9.730;2022-07-23T02:31:29;19.48;;;14.87;;
47481;SDS011;33219;47.410;9.730;2022-07-23T02:33:57;19.00;;;14.90;;
47481;SDS011;33219;47.410;9.730;2022-07-23T02:36:25;20.97;;;16.25;;
47481;SDS011;33219;47.410;9.730;2022-07-23T02:38:53;20.52;;;15.53;;
47481;SDS011;33219;47.410;9.730;2022-07-23T02:41:21;18.98;;;15.40;;
47481;SDS011;33219;47.410;9.730;2022-07-23T02:43:48;18.75;;;14.95;;
47481;SDS011;33219;47.410;9.730;2022-07-23T02:46:16;20.08;;;15.18;;
47481;SDS011;33219;47.410;9.730;2022-07-23T02:48:43;20.45;;;16.25;;
47481;SDS011;33219;47.410;9.730;2022-07-23T02:51:11;20.52;;;16.07;;
47481;SDS011;33219;47.410;9.730;2022-07-23T02:53:38;20.32;;;16.07;;
47481;SDS011;33219;47.410;9.730;2022-07-23T02:56:06;20.32;;;16.62;;
47481;SDS011;33219;47.410;9.730;2022-07-23T02:58:34;20.90;;;16.27;;
47481;SDS011;33219;47.410;9.730;2022-07-23T03:01:02;18.77;;;15.85;;
47481;SDS011;33219;47.410;9.730;2022-07-23T03:03:29;18.75;;;16.20;;
47481;SDS011;33219;47.410;9.730;2022-07-23T03:05:57;20.35;;;15.50;;
47481;SDS011;33219;47.410;9.730;2022-07-23T03:08:24;19.30;;;15.78;;
47481;SDS011;33219;47.410;9.730;2022-07-23T03:10:52;20.35;;;15.63;;
47481;SDS011;33219;47.410;9.730;2022-07-23T03:13:19;20.35;;;15.70;;
47481;SDS011;33219;47.410;9.730;2022-07-23T03:15:47;19.15;;;15.63;;
47481;SDS011;33219;47.410;9.730;2022-07-23T03:18:15;19.05;;;15.75;;
47481;SDS011;33219;47.410;9.730;2022-07-23T03:20:42;16.73;;;14.93;;
47481;SDS011;33219;47.410;9.730;2022-07-23T03:23:10;14.93;;;13.03;;
47481;SDS011;33219;47.410;9.730;2022-07-23T03:25:37;15.20;;;13.03;;
47481;SDS011;33219;47.410;9.730;2022-07-23T03:28:05;13.88;;;12.15;;
47481;SDS011;33219;47.410;9.730;2022-07-23T03:30:33;14.53;;;12.18;;
47481;SDS011;33219;47.410;9.730;2022-07-23T03:33:00;14.70;;;12.73;;
47481;SDS011;33219;47.410;9.730;2022-07-23T03:35:28;15.68;;;12.95;;
47481;SDS011;33219;47.410;9.730;2022-07-23T03:37:55;16.52;;;14.73;;
47481;SDS011;33219;47.410;9.730;2022-07-23T03:40:23;17.02;;;13.53;;
47481;SDS011;33219;47.410;9.730;2022-07-23T03:42:50;14.75;;;13.15;;
47481;SDS011;33219;47.410;9.730;2022-07-23T03:45:18;12.40;;;10.63;;
47481;SDS011;33219;47.410;9.730;2022-07-23T03:47:45;11.45;;;8.70;;
47481;SDS011;33219;47.410;9.730;2022-07-23T03:50:13;10.08;;;8.95;;
47481;SDS011;33219;47.410;9.730;2022-07-23T03:52:41;10.25;;;8.93;;
47481;SDS011;33219;47.410;9.730;2022-07-23T03:55:08;10.68;;;8.80;;
47481;SDS011;33219;47.410;9.730;2022-07-23T03:57:36;10.63;;;9.48;;
47481;SDS011;33219;47.410;9.730;2022-07-23T04:00:04;9.75;;;8.55;;
47481;SDS011;33219;47.410;9.730;2022-07-23T04:02:35;9.68;;;8.50;;
47481;SDS011;33219;47.410;9.730;2022-07-23T04:05:04;9.50;;;8.00;;
47481;SDS011;33219;47.410;9.730;2022-07-23T04:07:32;10.55;;;8.15;;
47481;SDS011;33219;47.410;9.730;2022-07-23T04:09:59;10.28;;;8.75;;
47481;SDS011;33219;47.410;9.730;2022-07-23T04:12:27;11.12;;;9.15;;
47481;SDS011;33219;47.410;9.730;2022-07-23T04:14:54;8.50;;;7.60;;
47481;SDS011;33219;47.410;9.730;2022-07-23T04:17:22;9.30;;;8.30;;
47481;SDS011;33219;47.410;9.730;2022-07-23T04:19:50;8.18;;;7.37;;
47481;SDS011;33219;47.410;9.730;2022-07-23T04:22:17;8.70;;;7.03;;
47481;SDS011;33219;47.410;9.730;2022-07-23T04:24:45;8.43;;;7.55;;
47481;SDS011;33219;47.410;9.730;2022-07-23T04:27:12;9.53;;;8.03;;
47481;SDS011;33219;47.410;9.730;2022-07-23T04:29:40;8.48;;;7.60;;
47481;SDS011;33219;47.410;9.730;2022-07-23T04:32:07;9.48;;;8.48;;
47481;SDS011;33219;47.410;9.730;2022-07-23T04:34:36;7.97;;;7.00;;
47481;SDS011;33219;47.410;9.730;2022-07-23T04:37:04;8.55;;;7.53;;
47481;SDS011;33219;47.410;9.730;2022-07-23T04:39:32;8.63;;;7.00;;
47481;SDS011;33219;47.410;9.730;2022-07-23T04:41:59;7.05;;;6.10;;
47481;SDS011;33219;47.410;9.730;2022-07-23T04:44:27;8.60;;;6.95;;
47481;SDS011;33219;47.410;9.730;2022-07-23T04:46:54;7.00;;;6.30;;
47481;SDS011;33219;47.410;9.730;2022-07-23T04:49:22;7.10;;;6.15;;
47481;SDS011;33219;47.410;9.730;2022-07-23T04:51:49;6.92;;;6.00;;
47481;SDS011;33219;47.410;9.730;2022-07-23T04:54:17;7.67;;;6.03;;
47481;SDS011;33219;47.410;9.730;2022-07-23T04:56:45;6.58;;;5.62;;
47481;SDS011;33219;47.410;9.730;2022-07-23T04:59:12;5.80;;;5.15;;
47481;SDS011;33219;47.410;9.730;2022-07-23T05:01:40;6.55;;;5.28;;
47481;SDS011;33219;47.410;9.730;2022-07-23T05:04:07;7.85;;;5.58;;
47481;SDS011;33219;47.410;9.730;2022-07-23T05:06:35;6.55;;;5.65;;
47481;SDS011;33219;47.410;9.730;2022-07-23T05:09:02;7.72;;;6.10;;
47481;SDS011;33219;47.410;9.730;2022-07-23T05:11:30;7.05;;;5.55;;
47481;SDS011;33219;47.410;9.730;2022-07-23T05:13:58;7.25;;;6.03;;
47481;SDS011;33219;47.410;9.730;2022-07-23T05:16:25;7.20;;;5.80;;
47481;SDS011;33219;47.410;9.730;2022-07-23T05:18:53;6.90;;;5.95;;
47481;SDS011;33219;47.410;9.730;2022-07-23T05:21:20;9.65;;;6.20;;
47481;SDS011;33219;47.410;9.730;2022-07-23T05:23:48;7.37;;;6.00;;
47481;SDS011;33219;47.410;9.730;2022-07-23T05:26:15;7.45;;;6.60;;
47481;SDS011;33219;47.410;9.730;2022-07-23T05:28:43;7.33;;;6.20;;
47481;SDS011;33219;47.410;9.730;2022-07-23T05:31:10;7.85;;;6.12;;
47481;SDS011;33219;47.410;9.730;2022-07-23T05:33:38;7.58;;;6.20;;
47481;SDS011;33219;47.410;9.730;2022-07-23T05:36:06;8.05;;;6.20;;
47481;SDS011;33219;47.410;9.730;2022-07-23T05:38:33;7.90;;;6.10;;
47481;SDS011;33219;47.410;9.730;2022-07-23T05:41:01;8.23;;;6.35;;
47481;SDS011;33219;47.410;9.730;2022-07-23T05:43:29;9.30;;;6.30;;
47481;SDS011;33219;47.410;9.730;2022-07-23T05:45:56;7.72;;;6.12;;
47481;SDS011;33219;47.410;9.730;2022-07-23T05:48:24;7.85;;;5.80;;
47481;SDS011;33219;47.410;9.730;2022-07-23T05:50:51;8.80;;;6.58;;
47481;SDS011;33219;47.410;9.730;2022-07-23T05:53:19;8.50;;;6.28;;
47481;SDS011;33219;47.410;9.730;2022-07-23T05:55:47;7.15;;;6.17;;
47481;SDS011;33219;47.410;9.730;2022-07-23T05:58:14;8.50;;;5.83;;
47481;SDS011;33219;47.410;9.730;2022-07-23T06:00:42;8.10;;;5.95;;
47481;SDS011;33219;47.410;9.730;2022-07-23T06:03:09;6.72;;;5.70;;
47481;SDS011;33219;47.410;9.730;2022-07-23T06:05:37;8.53;;;5.78;;
47481;SDS011;33219;47.410;9.730;2022-07-23T06:08:04;7.53;;;5.97;;
47481;SDS011;33219;47.410;9.730;2022-07-23T06:10:32;6.62;;;5.45;;
47481;SDS011;33219;47.410;9.730;2022-07-23T06:13:00;8.23;;;5.90;;
47481;SDS011;33219;47.410;9.730;2022-07-23T06:15:28;7.35;;;5.72;;
47481;SDS011;33219;47.410;9.730;2022-07-23T06:17:56;7.05;;;5.30;;
47481;SDS011;33219;47.410;9.730;2022-07-23T06:20:23;6.95;;;5.03;;
47481;SDS011;33219;47.410;9.730;2022-07-23T06:22:51;5.90;;;5.30;;
47481;SDS011;33219;47.410;9.730;2022-07-23T06:25:19;7.03;;;5.53;;
47481;SDS011;33219;47.410;9.730;2022-07-23T06:27:46;6.85;;;5.67;;
47481;SDS011;33219;47.410;9.730;2022-07-23T06:30:15;7.28;;;5.70;;
47481;SDS011;33219;47.410;9.730;2022-07-23T06:32:47;6.42;;;5.60;;
47481;SDS011;33219;47.410;9.730;2022-07-23T06:35:15;6.30;;;5.37;;
47481;SDS011;33219;47.410;9.730;2022-07-23T06:37:43;6.78;;;5.67;;
47481;SDS011;33219;47.410;9.730;2022-07-23T06:40:11;6.70;;;5.50;;
47481;SDS011;33219;47.410;9.730;2022-07-23T06:42:38;6.50;;;5.90;;
47481;SDS011;33219;47.410;9.730;2022-07-23T06:45:07;6.33;;;5.72;;
47481;SDS011;33219;47.410;9.730;2022-07-23T06:47:35;7.80;;;5.50;;
47481;SDS011;33219;47.410;9.730;2022-07-23T06:50:02;7.65;;;6.15;;
47481;SDS011;33219;47.410;9.730;2022-07-23T06:52:30;7.10;;;5.65;;
47481;SDS011;33219;47.410;9.730;2022-07-23T06:54:58;7.30;;;5.62;;
47481;SDS011;33219;47.410;9.730;2022-07-23T06:57:25;10.10;;;5.72;;
47481;SDS011;33219;47.410;9.730;2022-07-23T06:59:53;7.50;;;5.47;;
47481;SDS011;33219;47.410;9.730;2022-07-23T07:02:21;6.25;;;5.58;;
47481;SDS011;33219;47.410;9.730;2022-07-23T07:04:49;6.05;;;5.28;;
47481;SDS011;33219;47.410;9.730;2022-07-23T07:07:16;7.20;;;5.75;;
47481;SDS011;33219;47.410;9.730;2022-07-23T07:09:44;7.03;;;5.95;;
47481;SDS011;33219;47.410;9.730;2022-07-23T07:12:11;8.15;;;5.83;;
47481;SDS011;33219;47.410;9.730;2022-07-23T07:14:39;6.72;;;5.62;;
47481;SDS011;33219;47.410;9.730;2022-07-23T07:17:07;6.80;;;5.28;;
47481;SDS011;33219;47.410;9.730;2022-07-23T07:19:36;6.20;;;5.33;;
47481;SDS011;33219;47.410;9.730;2022-07-23T07:22:04;7.15;;;5.47;;
47481;SDS011;33219;47.410;9.730;2022-07-23T07:24:31;8.18;;;5.92;;
47481;SDS011;33219;47.410;9.730;2022-07-23T07:26:59;9.03;;;6.30;;
47481;SDS011;33219;47.410;9.730;2022-07-23T07:29:27;7.50;;;5.97;;
47481;SDS011;33219;47.410;9.730;2022-07-23T07:31:54;7.58;;;6.00;;
47481;SDS011;33219;47.410;9.730;2022-07-23T07:34:22;8.13;;;6.20;;
47481;SDS011;33219;47.410;9.730;2022-07-23T07:36:49;7.33;;;6.62;;
47481;SDS011;33219;47.410;9.730;2022-07-23T07:39:17;8.48;;;6.28;;
47481;SDS011;33219;47.410;9.730;2022-07-23T07:41:44;8.58;;;6.37;;
47481;SDS011;33219;47.410;9.730;2022-07-23T07:44:12;7.35;;;6.33;;
47481;SDS011;33219;47.410;9.730;2022-07-23T07:46:39;9.60;;;6.87;;
47481;SDS011;33219;47.410;9.730;2022-07-23T07:49:07;8.25;;;6.25;;
47481;SDS011;33219;47.410;9.730;2022-07-23T07:51:34;8.85;;;6.92;;
47481;SDS011;33219;47.410;9.730;2022-07-23T07:54:02;6.90;;;5.95;;
47481;SDS011;33219;47.410;9.730;2022-07-23T07:56:30;8.38;;;7.50;;
47481;SDS011;33219;47.410;9.730;2022-07-23T07:58:57;8.53;;;6.92;;
47481;SDS011;33219;47.410;9.730;2022-07-23T08:01:26;10.75;;;7.28;;
47481;SDS011;33219;47.410;9.730;2022-07-23T08:03:54;7.67;;;6.25;;
47481;SDS011;33219;47.410;9.730;2022-07-23T08:06:22;8.30;;;6.85;;
47481;SDS011;33219;47.410;9.730;2022-07-23T08:08:49;8.20;;;6.75;;
47481;SDS011;33219;47.410;9.730;2022-07-23T08:11:17;7.45;;;6.00;;
47481;SDS011;33219;47.410;9.730;2022-07-23T08:13:44;7.67;;;6.58;;
47481;SDS011;33219;47.410;9.730;2022-07-23T08:16:12;8.58;;;6.60;;
47481;SDS011;33219;47.410;9.730;2022-07-23T08:18:39;8.00;;;6.10;;
47481;SDS011;33219;47.410;9.730;2022-07-23T08:21:07;7.22;;;6.53;;
47481;SDS011;33219;47.410;9.730;2022-07-23T08:23:35;6.60;;;5.90;;
47481;SDS011;33219;47.410;9.730;2022-07-23T08:26:02;6.78;;;5.87;;
47481;SDS011;33219;47.410;9.730;2022-07-23T08:28:30;9.28;;;6.17;;
47481;SDS011;33219;47.410;9.730;2022-07-23T08:31:00;8.55;;;6.00;;
47481;SDS011;33219;47.410;9.730;2022-07-23T08:33:28;8.23;;;5.90;;
47481;SDS011;33219;47.410;9.730;2022-07-23T08:35:56;7.70;;;6.10;;
47481;SDS011;33219;47.410;9.730;2022-07-23T08:38:23;8.20;;;6.28;;
47481;SDS011;33219;47.410;9.730;2022-07-23T08:40:52;7.85;;;6.42;;
47481;SDS011;33219;47.410;9.730;2022-07-23T08:43:24;8.35;;;6.58;;
47481;SDS011;33219;47.410;9.730;2022-07-23T08:45:54;7.65;;;6.30;;
47481;SDS011;33219;47.410;9.730;2022-07-23T08:48:24;8.00;;;6.47;;
47481;SDS011;33219;47.410;9.730;2022-07-23T08:50:54;7.55;;;6.00;;
47481;SDS011;33219;47.410;9.730;2022-07-23T08:53:23;6.58;;;5.97;;
47481;SDS011;33219;47.410;9.730;2022-07-23T08:55:53;8.10;;;6.25;;
47481;SDS011;33219;47.410;9.730;2022-07-23T08:58:22;7.55;;;6.10;;
47481;SDS011;33219;47.410;9.730;2022-07-23T09:00:51;6.78;;;6.08;;
47481;SDS011;33219;47.410;9.730;2022-07-23T09:03:19;6.87;;;6.08;;
47481;SDS011;33219;47.410;9.730;2022-07-23T09:05:51;6.97;;;5.78;;
47481;SDS011;33219;47.410;9.730;2022-07-23T09:08:22;9.08;;;6.70;;
47481;SDS011;33219;47.410;9.730;2022-07-23T09:10:55;8.95;;;6.10;;
47481;SDS011;33219;47.410;9.730;2022-07-23T09:13:27;8.90;;;6.62;;
47481;SDS011;33219;47.410;9.730;2022-07-23T09:16:03;9.00;;;7.03;;
47481;SDS011;33219;47.410;9.730;2022-07-23T09:18:49;8.83;;;7.05;;
47481;SDS011;33219;47.410;9.730;2022-07-23T09:23:56;9.75;;;6.83;;
47481;SDS011;33219;47.410;9.730;2022-07-23T09:29:06;8.10;;;6.90;;
47481;SDS011;33219;47.410;9.730;2022-07-23T09:31:46;8.50;;;6.83;;
47481;SDS011;33219;47.410;9.730;2022-07-23T09:34:24;7.92;;;7.03;;
47481;SDS011;33219;47.410;9.730;2022-07-23T09:37:20;8.95;;;7.10;;
47481;SDS011;33219;47.410;9.730;2022-07-23T09:39:40;8.93;;;7.53;;
47481;SDS011;33219;47.410;9.730;2022-07-23T09:42:16;9.35;;;8.35;;
47481;SDS011;33219;47.410;9.730;2022-07-23T09:44:52;8.93;;;8.03;;
47481;SDS011;33219;47.410;9.730;2022-07-23T09:47:21;9.13;;;7.25;;
47481;SDS011;33219;47.410;9.730;2022-07-23T09:50:06;8.93;;;7.97;;
47481;SDS011;33219;47.410;9.730;2022-07-23T09:52:36;9.55;;;7.75;;
47481;SDS011;33219;47.410;9.730;2022-07-23T09:55:14;9.55;;;8.55;;
47481;SDS011;33219;47.410;9.730;2022-07-23T09:57:44;10.28;;;8.88;;
47481;SDS011;33219;47.410;9.730;2022-07-23T10:00:15;10.15;;;7.75;;
47481;SDS011;33219;47.410;9.730;2022-07-23T10:02:42;10.55;;;8.30;;
47481;SDS011;33219;47.410;9.730;2022-07-23T10:05:12;9.83;;;8.00;;
47481;SDS011;33219;47.410;9.730;2022-07-23T10:07:40;10.28;;;8.20;;
47481;SDS011;33219;47.410;9.730;2022-07-23T10:10:08;10.85;;;8.68;;
47481;SDS011;33219;47.410;9.730;2022-07-23T10:12:37;8.48;;;7.58;;
47481;SDS011;33219;47.410;9.730;2022-07-23T10:15:19;9.00;;;8.08;;
47481;SDS011;33219;47.410;9.730;2022-07-23T10:17:47;10.18;;;7.60;;
47481;SDS011;33219;47.410;9.730;2022-07-23T10:20:15;8.28;;;7.42;;
47481;SDS011;33219;47.410;9.730;2022-07-23T10:22:54;8.40;;;7.58;;
47481;SDS011;33219;47.410;9.730;2022-07-23T10:28:19;9.10;;;8.20;;
47481;SDS011;33219;47.410;9.730;2022-07-23T10:31:06;8.98;;;8.08;;
47481;SDS011;33219;47.410;9.730;2022-07-23T10:33:48;6.78;;;6.00;;
47481;SDS011;33219;47.410;9.730;2022-07-23T10:36:29;7.47;;;6.70;;
47481;SDS011;33219;47.410;9.730;2022-07-23T10:38:58;7.83;;;6.42;;
47481;SDS011;33219;47.410;9.730;2022-07-23T10:41:32;8.15;;;7.00;;
47481;SDS011;33219;47.410;9.730;2022-07-23T10:44:06;7.30;;;6.50;;
47481;SDS011;33219;47.410;9.730;2022-07-23T10:49:47;7.17;;;6.47;;
47481;SDS011;33219;47.410;9.730;2022-07-23T10:52:25;8.08;;;5.87;;
47481;SDS011;33219;47.410;9.730;2022-07-23T10:57:47;5.55;;;4.83;;
47481;SDS011;33219;47.410;9.730;2022-07-23T11:00:22;5.95;;;5.22;;
47481;SDS011;33219;47.410;9.730;2022-07-23T11:02:51;7.45;;;5.97;;
47481;SDS011;33219;47.410;9.730;2022-07-23T11:05:21;6.20;;;5.35;;
47481;SDS011;33219;47.410;9.730;2022-07-23T11:10:38;6.10;;;5.50;;
47481;SDS011;33219;47.410;9.730;2022-07-23T11:24:03;6.40;;;5.22;;
47481;SDS011;33219;47.410;9.730;2022-07-23T11:34:46;7.50;;;5.17;;
47481;SDS011;33219;47.410;9.730;2022-07-23T11:37:29;6.00;;;5.40;;
47481;SDS011;33219;47.410;9.730;2022-07-23T11:40:02;6.62;;;5.03;;
47481;SDS011;33219;47.410;9.730;2022-07-23T11:42:32;6.35;;;5.67;;
47481;SDS011;33219;47.410;9.730;2022-07-23T11:45:01;5.90;;;5.30;;
47481;SDS011;33219;47.410;9.730;2022-07-23T11:47:29;8.13;;;5.42;;
47481;SDS011;33219;47.410;9.730;2022-07-23T11:49:57;6.30;;;5.25;;
47481;SDS011;33219;47.410;9.730;2022-07-23T11:52:28;6.70;;;5.28;;
47481;SDS011;33219;47.410;9.730;2022-07-23T11:55:03;6.10;;;5.15;;
47481;SDS011;33219;47.410;9.730;2022-07-23T11:57:31;5.90;;;5.30;;
47481;SDS011;33219;47.410;9.730;2022-07-23T12:00:08;6.70;;;5.00;;
47481;SDS011;33219;47.410;9.730;2022-07-23T12:02:37;6.50;;;4.90;;
47481;SDS011;33219;47.410;9.730;2022-07-23T12:05:06;6.40;;;5.40;;
47481;SDS011;33219;47.410;9.730;2022-07-23T12:07:35;6.53;;;5.60;;
47481;SDS011;33219;47.410;9.730;2022-07-23T12:10:09;6.42;;;5.17;;
47481;SDS011;33219;47.410;9.730;2022-07-23T12:12:39;6.15;;;5.53;;
47481;SDS011;33219;47.410;9.730;2022-07-23T12:15:18;7.10;;;6.03;;
47481;SDS011;33219;47.410;9.730;2022-07-23T12:17:47;6.72;;;5.78;;
47481;SDS011;33219;47.410;9.730;2022-07-23T12:20:17;8.03;;;6.30;;
47481;SDS011;33219;47.410;9.730;2022-07-23T12:22:47;6.60;;;5.90;;
47481;SDS011;33219;47.410;9.730;2022-07-23T12:25:17;7.65;;;6.30;;
47481;SDS011;33219;47.410;9.730;2022-07-23T12:27:57;7.87;;;6.12;;
47481;SDS011;33219;47.410;9.730;2022-07-23T12:30:21;6.80;;;5.87;;
47481;SDS011;33219;47.410;9.730;2022-07-23T12:32:49;6.30;;;5.70;;
47481;SDS011;33219;47.410;9.730;2022-07-23T12:35:19;6.70;;;5.87;;
47481;SDS011;33219;47.410;9.730;2022-07-23T12:37:49;6.80;;;6.05;;
47481;SDS011;33219;47.410;9.730;2022-07-23T12:40:25;6.58;;;5.85;;
47481;SDS011;33219;47.410;9.730;2022-07-23T12:42:56;7.37;;;6.03;;
47481;SDS011;33219;47.410;9.730;2022-07-23T12:45:26;6.50;;;5.80;;
47481;SDS011;33219;47.410;9.730;2022-07-23T12:48:03;8.93;;;6.03;;
47481;SDS011;33219;47.410;9.730;2022-07-23T12:50:33;7.47;;;6.03;;
47481;SDS011;33219;47.410;9.730;2022-07-23T12:53:09;7.03;;;5.90;;
47481;SDS011;33219;47.410;9.730;2022-07-23T12:55:39;6.70;;;6.10;;
47481;SDS011;33219;47.410;9.730;2022-07-23T12:58:11;7.12;;;6.20;;
47481;SDS011;33219;47.410;9.730;2022-07-23T13:03:25;6.87;;;6.17;;
47481;SDS011;33219;47.410;9.730;2022-07-23T13:05:57;6.70;;;6.10;;
47481;SDS011;33219;47.410;9.730;2022-07-23T13:08:26;7.85;;;6.72;;
47481;SDS011;33219;47.410;9.730;2022-07-23T13:10:55;7.37;;;6.60;;
47481;SDS011;33219;47.410;9.730;2022-07-23T13:13:25;6.80;;;6.10;;
47481;SDS011;33219;47.410;9.730;2022-07-23T13:15:54;8.57;;;6.53;;
47481;SDS011;33219;47.410;9.730;2022-07-23T13:18:22;7.50;;;6.70;;
47481;SDS011;33219;47.410;9.730;2022-07-23T13:20:51;7.40;;;6.62;;
47481;SDS011;33219;47.410;9.730;2022-07-23T13:23:19;8.00;;;7.08;;
47481;SDS011;33219;47.410;9.730;2022-07-23T13:25:47;9.08;;;7.17;;
47481;SDS011;33219;47.410;9.730;2022-07-23T13:28:15;8.00;;;7.20;;
47481;SDS011;33219;47.410;9.730;2022-07-23T13:30:44;8.05;;;6.87;;
47481;SDS011;33219;47.410;9.730;2022-07-23T13:33:19;7.62;;;6.83;;
47481;SDS011;33219;47.410;9.730;2022-07-23T13:35:45;7.40;;;6.70;;
47481;SDS011;33219;47.410;9.730;2022-07-23T13:38:14;7.53;;;6.80;;
47481;SDS011;33219;47.410;9.730;2022-07-23T13:40:42;7.62;;;6.87;;
47481;SDS011;33219;47.410;9.730;2022-07-23T13:43:12;9.15;;;6.78;;
47481;SDS011;33219;47.410;9.730;2022-07-23T13:45:41;7.05;;;6.28;;
47481;SDS011;33219;47.410;9.730;2022-07-23T13:48:10;7.55;;;6.85;;
47481;SDS011;33219;47.410;9.730;2022-07-23T13:50:39;7.75;;;6.53;;
47481;SDS011;33219;47.410;9.730;2022-07-23T13:53:09;7.78;;;7.00;;
47481;SDS011;33219;47.410;9.730;2022-07-23T13:55:39;7.50;;;6.70;;
47481;SDS011;33219;47.410;9.730;2022-07-23T13:58:07;7.72;;;6.72;;
47481;SDS011;33219;47.410;9.730;2022-07-23T14:00:37;7.53;;;6.70;;
47481;SDS011;33219;47.410;9.730;2022-07-23T14:03:06;7.50;;;6.70;;
47481;SDS011;33219;47.410;9.730;2022-07-23T14:05:34;9.13;;;7.45;;
47481;SDS011;33219;47.410;9.730;2022-07-23T14:08:02;7.92;;;7.15;;
47481;SDS011;33219;47.410;9.730;2022-07-23T14:10:30;8.50;;;7.28;;
47481;SDS011;33219;47.410;9.730;2022-07-23T14:12:58;8.03;;;7.17;;
47481;SDS011;33219;47.410;9.730;2022-07-23T14:15:27;8.25;;;7.45;;
47481;SDS011;33219;47.410;9.730;2022-07-23T14:17:56;7.87;;;6.97;;
47481;SDS011;33219;47.410;9.730;2022-07-23T14:20:24;7.90;;;7.00;;
47481;SDS011;33219;47.410;9.730;2022-07-23T14:22:52;8.20;;;7.22;;
47481;SDS011;33219;47.410;9.730;2022-07-23T14:25:21;9.08;;;7.25;;
47481;SDS011;33219;47.410;9.730;2022-07-23T14:27:49;7.90;;;7.10;;
47481;SDS011;33219;47.410;9.730;2022-07-23T14:30:16;8.28;;;6.80;;
47481;SDS011;33219;47.410;9.730;2022-07-23T14:32:44;7.45;;;6.75;;
47481;SDS011;33219;47.410;9.730;2022-07-23T14:35:11;9.03;;;7.55;;
47481;SDS011;33219;47.410;9.730;2022-07-23T14:37:39;8.10;;;7.22;;
47481;SDS011;33219;47.410;9.730;2022-07-23T14:40:06;7.80;;;7.00;;
47481;SDS011;33219;47.410;9.730;2022-07-23T14:42:34;9.38;;;7.20;;
47481;SDS011;33219;47.410;9.730;2022-07-23T14:45:02;7.90;;;6.83;;
47481;SDS011;33219;47.410;9.730;2022-07-23T14:47:32;9.35;;;7.22;;
47481;SDS011;33219;47.410;9.730;2022-07-23T14:49:59;9.20;;;7.53;;
47481;SDS011;33219;47.410;9.730;2022-07-23T14:52:27;8.83;;;8.00;;
47481;SDS011;33219;47.410;9.730;2022-07-23T14:54:54;9.33;;;7.85;;
47481;SDS011;33219;47.410;9.730;2022-07-23T14:57:22;8.25;;;7.37;;
47481;SDS011;33219;47.410;9.730;2022-07-23T14:59:50;8.40;;;7.37;;
47481;SDS011;33219;47.410;9.730;2022-07-23T15:02:17;8.73;;;7.50;;
47481;SDS011;33219;47.410;9.730;2022-07-23T15:04:45;8.35;;;7.45;;
47481;SDS011;33219;47.410;9.730;2022-07-23T15:07:12;9.20;;;7.75;;
47481;SDS011;33219;47.410;9.730;2022-07-23T15:09:40;10.15;;;7.60;;
47481;SDS011;33219;47.410;9.730;2022-07-23T15:12:07;8.60;;;7.70;;
47481;SDS011;33219;47.410;9.730;2022-07-23T15:14:35;8.78;;;7.42;;
47481;SDS011;33219;47.410;9.730;2022-07-23T15:17:02;8.33;;;7.30;;
47481;SDS011;33219;47.410;9.730;2022-07-23T15:19:30;7.70;;;6.90;;
47481;SDS011;33219;47.410;9.730;2022-07-23T15:21:57;8.40;;;7.45;;
47481;SDS011;33219;47.410;9.730;2022-07-23T15:24:25;8.20;;;7.40;;
47481;SDS011;33219;47.410;9.730;2022-07-23T15:26:52;8.83;;;7.92;;
47481;SDS011;33219;47.410;9.730;2022-07-23T15:29:20;9.13;;;8.23;;